Time;durP1;ratioP1;P1;durP2;ratioP2;P2;SDS_P1;SDS_P2;PMS_P1;PMS_P2;Temp;Humidity;BMP_temperature;BMP_pressure;BME280_temperature;BME280_humidity;BME280_pressure;Samples;Min_cycle;Max_cycle;Signal;HPM_P1;HPM_P2
2024/03/01 00:01:40;;;;;;;9.30;5.07;;;8.70;99.90;;;;;;4996122;28;20037;-78
2024/03/01 00:04:06;;;;;;;9.10;4.88;;;8.70;99.90;;;;;;4990070;28;20030;-77
2024/03/01 00:06:32;;;;;;;8.50;5.28;;;8.80;99.90;;;;;;4992119;28;20064;-77
2024/03/01 00:08:58;;;;;;;8.82;4.70;;;8.80;99.90;;;;;;4991502;28;20046;-77
2024/03/01 00:11:24;;;;;;;11.80;5.20;;;8.80;99.90;;;;;;4995243;28;20514;-77
2024/03/01 00:13:50;;;;;;;10.18;5.07;;;8.80;99.90;;;;;;4989502;28;20043;-78
2024/03/01 00:16:15;;;;;;;7.35;4.60;;;8.80;99.90;;;;;;4987516;28;20018;-77
2024/03/01 00:18:42;;;;;;;10.07;6.15;;;8.80;99.90;;;;;;4994896;28;20094;-77
2024/03/01 00:21:11;;;;;;;8.82;5.25;;;8.80;99.90;;;;;;4999795;28;20031;-78
2024/03/01 00:23:37;;;;;;;8.93;5.00;;;8.80;99.90;;;;;;4998087;28;20025;-77
2024/03/01 00:26:02;;;;;;;8.38;5.43;;;8.80;99.90;;;;;;4988514;28;20030;-76
2024/03/01 00:28:28;;;;;;;10.15;5.45;;;8.90;99.90;;;;;;4993020;28;20030;-77
2024/03/01 00:30:53;;;;;;;9.15;5.65;;;8.90;99.90;;;;;;4989193;28;20038;-77
2024/03/01 00:33:19;;;;;;;10.27;5.43;;;8.80;99.90;;;;;;4996393;28;20038;-78
2024/03/01 00:35:45;;;;;;;8.57;4.88;;;8.80;99.90;;;;;;4988292;28;20483;-77
2024/03/01 00:38:10;;;;;;;8.07;5.38;;;8.80;99.90;;;;;;4985282;28;21288;-77
2024/03/01 00:40:36;;;;;;;10.07;4.90;;;8.80;99.90;;;;;;4988319;28;20041;-77
2024/03/01 00:43:02;;;;;;;10.25;5.80;;;8.80;99.90;;;;;;4984915;28;20084;-76
2024/03/01 00:45:28;;;;;;;9.18;5.63;;;8.80;99.90;;;;;;4994034;28;20479;-77
2024/03/01 00:47:53;;;;;;;9.90;5.25;;;8.70;99.90;;;;;;4990371;28;20096;-77
2024/03/01 00:50:23;;;;;;;9.05;5.68;;;8.70;99.90;;;;;;4991885;28;20765;-77
2024/03/01 00:52:50;;;;;;;10.68;5.90;;;8.70;99.90;;;;;;4993345;28;20038;-77
2024/03/01 00:55:15;;;;;;;9.70;5.90;;;8.70;99.90;;;;;;4996322;28;20026;-77
2024/03/01 00:57:41;;;;;;;8.65;5.18;;;8.70;99.90;;;;;;4996514;28;20030;-76
2024/03/01 01:00:08;;;;;;;13.27;6.40;;;8.70;99.90;;;;;;4987488;28;20018;-76
2024/03/01 01:02:37;;;;;;;8.68;5.20;;;8.70;99.90;;;;;;4988537;28;20510;-77
2024/03/01 01:05:03;;;;;;;8.45;5.32;;;8.70;99.90;;;;;;4992491;28;20430;-77
2024/03/01 01:07:28;;;;;;;10.23;6.45;;;8.70;99.90;;;;;;4993426;28;20022;-77
2024/03/01 01:09:55;;;;;;;10.68;5.97;;;8.70;99.90;;;;;;4991656;28;20030;-77
2024/03/01 01:12:20;;;;;;;12.15;6.45;;;8.70;99.90;;;;;;4990025;28;20498;-77
2024/03/01 01:14:46;;;;;;;9.68;5.70;;;8.70;99.90;;;;;;4990622;28;20041;-77
2024/03/01 01:17:11;;;;;;;9.43;5.63;;;8.70;99.90;;;;;;4988191;28;20031;-78
2024/03/01 01:19:37;;;;;;;12.27;6.47;;;8.80;99.90;;;;;;4999044;28;20475;-76
2024/03/01 01:22:02;;;;;;;10.18;5.93;;;8.80;99.90;;;;;;4988400;28;20081;-77
2024/03/01 01:24:28;;;;;;;12.30;7.13;;;8.80;99.90;;;;;;4990936;28;20030;-76
2024/03/01 01:26:54;;;;;;;10.18;6.32;;;8.80;99.90;;;;;;4988773;28;20391;-77
2024/03/01 01:29:19;;;;;;;11.32;5.82;;;8.80;99.90;;;;;;4986637;28;20438;-77
2024/03/01 01:31:46;;;;;;;11.57;6.57;;;8.90;99.90;;;;;;4988018;28;20029;-78
2024/03/01 01:34:11;;;;;;;11.43;6.70;;;8.90;99.90;;;;;;4990029;28;20035;-76
2024/03/01 01:36:37;;;;;;;10.93;5.90;;;8.90;99.90;;;;;;4987957;28;20083;-75
2024/03/01 01:39:07;;;;;;;9.75;6.43;;;8.90;99.90;;;;;;4992419;28;20398;-77
2024/03/01 01:41:35;;;;;;;11.05;6.45;;;8.90;99.90;;;;;;4990646;28;20031;-76
2024/03/01 01:44:01;;;;;;;12.18;6.18;;;9.00;99.90;;;;;;4996303;28;20025;-78
2024/03/01 01:46:27;;;;;;;12.88;6.18;;;9.00;99.90;;;;;;4986860;28;20030;-77
2024/03/01 01:48:52;;;;;;;9.90;5.80;;;9.00;99.90;;;;;;4995213;28;20073;-77
2024/03/01 01:51:20;;;;;;;11.05;6.60;;;9.00;99.90;;;;;;5003033;28;20467;-77
2024/03/01 01:53:46;;;;;;;11.90;6.38;;;9.00;99.90;;;;;;4994552;28;20038;-77
2024/03/01 01:56:13;;;;;;;12.13;7.20;;;9.00;99.90;;;;;;4996016;28;20038;-77
2024/03/01 01:58:41;;;;;;;13.43;7.05;;;9.00;99.90;;;;;;5000580;28;20045;-77
2024/03/01 02:01:08;;;;;;;10.98;6.60;;;9.00;99.90;;;;;;4996776;28;20486;-77
2024/03/01 02:03:39;;;;;;;10.35;6.20;;;9.00;99.90;;;;;;4993327;28;20030;-77
2024/03/01 02:06:06;;;;;;;13.75;6.82;;;9.00;99.90;;;;;;4991541;28;20026;-77
2024/03/01 02:08:33;;;;;;;9.90;5.55;;;9.00;99.90;;;;;;4996391;28;20031;-78
2024/03/01 02:10:59;;;;;;;11.93;6.95;;;9.10;99.90;;;;;;4999711;28;20055;-79
2024/03/01 02:13:25;;;;;;;10.70;6.60;;;9.10;99.90;;;;;;4993340;28;20039;-79
2024/03/01 02:15:52;;;;;;;10.32;6.05;;;9.10;99.90;;;;;;4998758;28;20077;-78
2024/03/01 02:18:18;;;;;;;10.30;6.32;;;9.10;99.90;;;;;;4993040;28;20038;-78
2024/03/01 02:20:59;;;;;;;12.30;5.95;;;9.00;99.90;;;;;;4993876;28;20045;-78
2024/03/01 02:23:25;;;;;;;10.57;6.15;;;9.10;99.90;;;;;;4987595;28;20190;-77
2024/03/01 02:25:51;;;;;;;10.73;6.55;;;9.00;99.90;;;;;;4988788;28;20112;-76
2024/03/01 02:28:16;;;;;;;9.95;6.22;;;9.10;99.90;;;;;;4994173;28;20019;-76
2024/03/01 02:30:44;;;;;;;10.73;6.35;;;9.10;99.90;;;;;;4999904;28;20109;-77
2024/03/01 02:33:10;;;;;;;10.15;5.53;;;9.00;99.90;;;;;;4996254;28;20034;-76
2024/03/01 02:35:36;;;;;;;10.38;5.05;;;9.10;99.90;;;;;;4989041;28;20027;-77
2024/03/01 02:38:01;;;;;;;9.98;5.82;;;9.10;99.90;;;;;;4998240;28;20498;-77
2024/03/01 02:40:27;;;;;;;9.85;5.93;;;9.10;99.90;;;;;;4994055;28;20014;-78
2024/03/01 02:42:52;;;;;;;10.45;5.68;;;9.10;99.90;;;;;;4995262;28;20065;-77
2024/03/01 02:45:18;;;;;;;7.60;4.90;;;9.10;99.90;;;;;;5001194;28;20030;-76
2024/03/01 02:47:44;;;;;;;10.73;5.60;;;9.10;99.90;;;;;;4987145;28;20061;-76
2024/03/01 02:50:09;;;;;;;8.98;5.15;;;9.10;99.90;;;;;;4993978;28;20034;-76
2024/03/01 02:52:35;;;;;;;8.50;5.40;;;9.10;99.90;;;;;;4997496;28;20114;-77
2024/03/01 02:55:02;;;;;;;10.82;4.80;;;9.10;99.90;;;;;;4991692;28;20052;-77
2024/03/01 02:57:28;;;;;;;6.95;4.00;;;9.10;99.90;;;;;;4999023;28;20022;-77
2024/03/01 02:59:54;;;;;;;8.50;5.22;;;9.10;99.90;;;;;;4995951;28;20108;-78
2024/03/01 03:02:19;;;;;;;8.65;5.07;;;9.10;99.90;;;;;;4993152;28;20487;-77
2024/03/01 03:04:45;;;;;;;6.53;4.40;;;9.10;99.90;;;;;;4990590;28;20490;-77
2024/03/01 03:07:10;;;;;;;8.43;4.70;;;9.10;99.90;;;;;;4989738;28;20116;-78
2024/03/01 03:09:41;;;;;;;8.57;5.07;;;9.10;99.90;;;;;;4992946;28;20388;-77
2024/03/01 03:12:06;;;;;;;8.60;3.97;;;9.10;99.90;;;;;;4987955;28;20050;-77
2024/03/01 03:14:32;;;;;;;8.75;4.47;;;9.10;99.90;;;;;;4986070;28;20129;-77
2024/03/01 03:16:58;;;;;;;8.55;4.20;;;9.10;99.90;;;;;;4986979;28;20022;-76
2024/03/01 03:19:23;;;;;;;6.78;3.63;;;9.10;99.90;;;;;;4991612;28;20239;-77
2024/03/01 03:21:49;;;;;;;7.45;3.97;;;9.10;99.90;;;;;;4994453;28;20113;-77
2024/03/01 03:24:14;;;;;;;5.85;3.22;;;9.20;99.90;;;;;;4993116;28;20035;-77
2024/03/01 03:26:40;;;;;;;6.68;4.03;;;9.20;99.90;;;;;;4997152;28;20045;-77
2024/03/01 03:29:05;;;;;;;6.28;3.15;;;9.20;99.90;;;;;;4989915;28;20030;-78
2024/03/01 03:31:31;;;;;;;5.65;3.47;;;9.20;99.90;;;;;;4997374;28;20026;-77
2024/03/01 03:33:57;;;;;;;5.97;3.15;;;9.30;99.90;;;;;;4992618;28;20471;-76
2024/03/01 03:36:23;;;;;;;5.55;3.20;;;9.20;99.90;;;;;;4990728;28;20080;-77
2024/03/01 03:38:48;;;;;;;5.30;2.90;;;9.30;99.90;;;;;;4992715;28;20034;-77
2024/03/01 03:41:14;;;;;;;5.13;2.97;;;9.30;99.90;;;;;;4992333;28;20418;-77
2024/03/01 03:43:39;;;;;;;7.13;3.10;;;9.30;99.90;;;;;;5001232;28;20097;-77
2024/03/01 03:46:05;;;;;;;7.03;2.70;;;9.30;99.90;;;;;;4992586;28;20041;-77
2024/03/01 03:48:31;;;;;;;4.80;2.80;;;9.30;99.90;;;;;;4998200;28;20069;-77
2024/03/01 03:50:57;;;;;;;5.35;3.15;;;9.30;99.90;;;;;;4997006;28;20080;-77
2024/03/01 03:53:22;;;;;;;8.07;3.55;;;9.30;99.90;;;;;;4994978;28;20068;-77
2024/03/01 03:55:48;;;;;;;7.05;3.85;;;9.30;99.90;;;;;;4990179;28;20067;-77
2024/03/01 03:58:13;;;;;;;5.65;3.47;;;9.20;99.90;;;;;;5002271;28;20576;-77
2024/03/01 04:00:39;;;;;;;6.45;3.20;;;9.20;99.90;;;;;;4998231;28;20036;-77
2024/03/01 04:03:05;;;;;;;6.70;3.33;;;9.10;99.90;;;;;;4998491;28;20026;-77
2024/03/01 04:05:30;;;;;;;4.47;2.40;;;9.10;99.90;;;;;;4988038;28;20057;-77
2024/03/01 04:07:56;;;;;;;2.80;1.70;;;9.10;99.90;;;;;;4989308;28;20030;-77
2024/03/01 04:10:22;;;;;;;2.55;1.52;;;9.00;99.90;;;;;;4995773;28;20068;-77
2024/03/01 04:12:48;;;;;;;2.00;1.20;;;8.90;99.90;;;;;;4991138;28;20050;-77
2024/03/01 04:15:14;;;;;;;2.63;1.30;;;8.70;99.90;;;;;;4990006;28;20486;-77
2024/03/01 04:17:40;;;;;;;5.13;1.70;;;8.50;99.90;;;;;;4987859;28;20041;-77
2024/03/01 04:20:07;;;;;;;2.72;1.73;;;8.30;99.90;;;;;;4993285;28;20531;-77
2024/03/01 04:22:33;;;;;;;4.07;2.42;;;8.10;99.90;;;;;;4991888;28;20026;-77
2024/03/01 04:25:00;;;;;;;4.40;2.53;;;8.00;99.90;;;;;;4991314;28;20022;-77
2024/03/01 04:27:26;;;;;;;5.40;3.20;;;7.90;99.90;;;;;;4991512;28;20126;-78
2024/03/01 04:29:51;;;;;;;5.85;4.05;;;7.80;99.90;;;;;;4987690;28;20109;-77
2024/03/01 04:32:17;;;;;;;5.28;3.90;;;7.70;99.90;;;;;;4993762;28;20569;-76
2024/03/01 04:34:44;;;;;;;8.95;5.20;;;7.60;99.90;;;;;;4990039;28;20026;-76
2024/03/01 04:37:13;;;;;;;5.53;4.75;;;7.60;99.90;;;;;;4990351;28;20026;-77
2024/03/01 04:39:39;;;;;;;12.55;6.57;;;7.60;99.90;;;;;;4990208;28;20069;-77
2024/03/01 04:42:04;;;;;;;6.18;4.28;;;7.60;99.90;;;;;;4986836;28;20058;-76
2024/03/01 04:44:30;;;;;;;6.47;4.07;;;7.60;99.90;;;;;;4990066;28;20596;-77
2024/03/01 04:46:56;;;;;;;7.40;3.47;;;7.50;99.90;;;;;;4990065;28;20026;-77
2024/03/01 04:49:21;;;;;;;5.35;3.47;;;7.50;99.90;;;;;;4995611;28;20101;-77
2024/03/01 04:51:47;;;;;;;6.65;3.33;;;7.40;99.90;;;;;;4995083;28;20084;-76
2024/03/01 04:54:13;;;;;;;8.82;3.05;;;7.40;99.90;;;;;;4990784;28;20114;-77
2024/03/01 04:56:38;;;;;;;4.57;3.03;;;7.40;99.90;;;;;;4996121;28;20026;-78
2024/03/01 04:59:04;;;;;;;3.55;2.28;;;7.40;99.90;;;;;;4993964;28;20026;-77
2024/03/01 05:01:29;;;;;;;4.72;1.65;;;7.30;99.90;;;;;;4991968;28;20030;-77
2024/03/01 05:03:55;;;;;;;6.70;1.58;;;7.30;99.90;;;;;;4987615;28;20050;-77
2024/03/01 05:06:20;;;;;;;4.05;1.70;;;7.30;99.90;;;;;;4994847;28;20042;-77
2024/03/01 05:08:46;;;;;;;3.40;2.03;;;7.20;99.90;;;;;;4992972;28;20467;-77
2024/03/01 05:11:12;;;;;;;3.75;2.50;;;7.10;99.90;;;;;;4989035;28;20076;-77
2024/03/01 05:13:38;;;;;;;5.30;2.90;;;7.10;99.90;;;;;;4999992;28;20165;-77
2024/03/01 05:16:04;;;;;;;7.22;3.70;;;7.10;99.90;;;;;;4993960;28;20029;-77
2024/03/01 05:18:29;;;;;;;8.07;5.25;;;7.10;99.90;;;;;;4982859;28;20026;-77
2024/03/01 05:20:55;;;;;;;7.47;5.80;;;7.20;99.90;;;;;;4993040;28;20027;-77
2024/03/01 05:23:21;;;;;;;8.20;5.93;;;7.20;99.90;;;;;;4985995;28;20049;-77
2024/03/01 05:25:48;;;;;;;11.27;7.72;;;7.20;99.90;;;;;;4991317;28;20022;-77
2024/03/01 05:28:14;;;;;;;9.75;7.55;;;7.20;99.90;;;;;;4994732;28;20524;-77
2024/03/01 05:30:39;;;;;;;9.85;7.20;;;7.20;99.90;;;;;;4996060;28;20113;-77
2024/03/01 05:33:07;;;;;;;10.27;7.80;;;7.20;99.90;;;;;;4989006;28;20049;-77
2024/03/01 05:35:32;;;;;;;10.13;8.50;;;7.20;99.90;;;;;;4989856;28;20133;-77
2024/03/01 05:37:58;;;;;;;10.73;6.97;;;7.20;99.90;;;;;;4992284;28;20113;-77
2024/03/01 05:40:24;;;;;;;8.52;5.65;;;7.20;99.90;;;;;;4991323;28;20430;-77
2024/03/01 05:42:51;;;;;;;5.32;3.67;;;7.20;99.90;;;;;;4988944;28;20030;-77
2024/03/01 05:45:17;;;;;;;5.25;3.10;;;7.20;99.90;;;;;;4988689;28;20031;-77
2024/03/01 05:47:44;;;;;;;4.85;3.10;;;7.10;99.90;;;;;;4987556;28;20023;-76
2024/03/01 05:50:11;;;;;;;6.00;1.60;;;7.10;99.90;;;;;;4989409;28;20057;-77
2024/03/01 05:52:39;;;;;;;3.75;1.70;;;7.10;99.90;;;;;;4989180;28;20034;-77
2024/03/01 05:55:05;;;;;;;5.72;2.00;;;7.10;99.90;;;;;;4988324;28;20026;-77
2024/03/01 05:57:32;;;;;;;10.43;1.73;;;7.10;99.90;;;;;;4991215;28;20456;-77
2024/03/01 05:59:57;;;;;;;5.53;1.67;;;7.10;99.90;;;;;;4997212;28;20105;-77
2024/03/01 06:02:24;;;;;;;3.80;1.98;;;7.00;99.90;;;;;;4986868;28;20427;-77
2024/03/01 06:04:50;;;;;;;4.60;2.25;;;7.00;99.90;;;;;;4991703;28;20031;-77
2024/03/01 06:07:18;;;;;;;4.38;2.10;;;7.00;99.90;;;;;;4986900;28;20367;-76
2024/03/01 06:09:44;;;;;;;6.68;2.20;;;7.00;99.90;;;;;;4988469;28;20031;-77
2024/03/01 06:12:10;;;;;;;4.85;2.05;;;6.90;99.90;;;;;;4987538;28;20039;-77
2024/03/01 06:14:36;;;;;;;5.70;2.45;;;7.00;99.90;;;;;;4988135;28;20069;-76
2024/03/01 06:17:03;;;;;;;4.40;2.20;;;7.00;99.90;;;;;;4981308;28;20035;-76
2024/03/01 06:19:28;;;;;;;5.65;2.25;;;7.10;99.90;;;;;;4985037;28;20031;-77
2024/03/01 06:21:57;;;;;;;7.22;2.50;;;7.10;99.90;;;;;;4982461;28;20046;-76
2024/03/01 06:24:23;;;;;;;6.75;2.53;;;7.10;99.90;;;;;;4978750;28;20431;-77
2024/03/01 06:26:50;;;;;;;3.88;1.67;;;7.10;99.90;;;;;;4973533;28;20033;-77
2024/03/01 06:29:16;;;;;;;5.53;2.17;;;7.10;99.90;;;;;;4981941;28;20026;-77
2024/03/01 06:31:45;;;;;;;7.20;2.17;;;7.10;99.90;;;;;;4990746;28;20061;-77
2024/03/01 06:34:11;;;;;;;3.17;1.95;;;7.20;99.90;;;;;;4986290;28;20038;-77
2024/03/01 06:36:36;;;;;;;9.77;2.63;;;7.10;99.90;;;;;;4993346;28;20042;-77
2024/03/01 06:39:02;;;;;;;5.40;1.42;;;7.10;99.90;;;;;;4991092;28;20038;-77
2024/03/01 06:41:28;;;;;;;3.53;1.52;;;7.10;99.90;;;;;;4983236;28;20061;-77
2024/03/01 06:43:54;;;;;;;7.80;1.52;;;7.10;99.90;;;;;;4993428;28;20113;-77
2024/03/01 06:46:19;;;;;;;4.57;1.38;;;7.10;99.90;;;;;;4994148;28;20474;-77
2024/03/01 06:48:45;;;;;;;3.30;1.38;;;7.10;99.90;;;;;;4977647;28;20043;-77
2024/03/01 06:51:11;;;;;;;7.38;1.35;;;7.10;99.90;;;;;;4994102;28;20084;-77
2024/03/01 06:53:36;;;;;;;7.85;1.67;;;7.00;99.90;;;;;;4989368;28;20042;-77
2024/03/01 06:56:03;;;;;;;3.67;1.50;;;7.10;99.90;;;;;;4977558;28;20022;-78
2024/03/01 06:58:29;;;;;;;4.22;1.38;;;7.10;99.90;;;;;;4991914;28;20022;-77
2024/03/01 07:00:54;;;;;;;7.18;2.22;;;7.10;99.90;;;;;;4993240;28;20395;-77
2024/03/01 07:03:20;;;;;;;5.05;1.77;;;7.10;99.90;;;;;;4992202;28;20035;-77
2024/03/01 07:05:46;;;;;;;4.95;2.20;;;7.10;99.90;;;;;;4991971;28;20397;-77
2024/03/01 07:08:11;;;;;;;5.60;2.83;;;7.10;99.90;;;;;;4991562;28;20434;-77
2024/03/01 07:10:38;;;;;;;6.78;2.95;;;7.10;99.90;;;;;;4986001;28;20034;-76
2024/03/01 07:13:03;;;;;;;9.82;3.45;;;7.10;99.90;;;;;;4988846;28;20065;-77
2024/03/01 07:15:29;;;;;;;7.35;3.30;;;7.00;99.90;;;;;;4988279;28;20030;-77
2024/03/01 07:17:57;;;;;;;8.52;4.45;;;7.00;99.90;;;;;;4988678;28;20426;-78
2024/03/01 07:20:22;;;;;;;5.78;4.10;;;6.90;99.90;;;;;;4993700;28;20077;-78
2024/03/01 07:22:49;;;;;;;7.90;3.92;;;6.90;99.90;;;;;;4990991;28;20054;-78
2024/03/01 07:25:15;;;;;;;9.68;4.43;;;6.90;99.90;;;;;;4980547;28;20085;-78
2024/03/01 07:27:41;;;;;;;11.30;5.28;;;6.90;99.90;;;;;;4984611;28;20038;-78
2024/03/01 07:30:07;;;;;;;11.00;6.88;;;6.90;99.90;;;;;;4983353;28;20052;-77
2024/03/01 07:32:36;;;;;;;11.38;6.43;;;6.90;99.90;;;;;;4973883;28;20588;-78
2024/03/01 07:35:06;;;;;;;13.90;7.47;;;6.90;99.90;;;;;;4980892;28;20039;-78
2024/03/01 07:37:32;;;;;;;15.57;8.85;;;6.90;99.90;;;;;;4990204;28;20026;-78
2024/03/01 07:39:57;;;;;;;14.38;8.52;;;6.90;99.90;;;;;;4990582;28;20540;-77
2024/03/01 07:42:26;;;;;;;14.63;9.35;;;6.90;99.90;;;;;;4992549;28;20058;-78
2024/03/01 07:44:52;;;;;;;15.48;10.05;;;6.80;99.90;;;;;;4992555;28;20034;-77
2024/03/01 07:47:18;;;;;;;21.67;11.57;;;6.80;99.90;;;;;;4992203;28;20027;-78
2024/03/01 07:49:47;;;;;;;18.98;11.52;;;6.70;99.90;;;;;;4989811;28;20120;-78
2024/03/01 07:52:13;;;;;;;18.05;10.65;;;6.80;99.90;;;;;;4987604;28;20038;-77
2024/03/01 07:54:39;;;;;;;21.55;11.38;;;6.80;99.90;;;;;;4980391;28;20041;-77
2024/03/01 07:57:04;;;;;;;20.35;12.93;;;6.80;99.90;;;;;;4989093;28;20039;-77
2024/03/01 07:59:30;;;;;;;18.80;12.18;;;6.90;99.90;;;;;;4988598;28;20059;-78
2024/03/01 08:01:57;;;;;;;18.92;12.40;;;6.90;99.90;;;;;;4989009;28;20034;-78
2024/03/01 08:04:23;;;;;;;21.40;12.20;;;6.90;99.90;;;;;;4990911;28;20023;-77
2024/03/01 08:06:48;;;;;;;18.55;12.32;;;6.90;99.90;;;;;;4987483;28;20053;-78
2024/03/01 08:09:17;;;;;;;20.77;12.18;;;6.90;99.90;;;;;;4992956;28;20037;-77
2024/03/01 08:11:47;;;;;;;20.67;13.45;;;6.90;99.90;;;;;;4993087;28;20122;-78
2024/03/01 08:14:25;;;;;;;21.27;12.13;;;6.90;99.90;;;;;;4990662;28;20046;-78
2024/03/01 08:16:52;;;;;;;22.77;12.20;;;6.80;99.90;;;;;;4992600;28;20187;-78
2024/03/01 08:19:19;;;;;;;21.65;11.98;;;6.80;99.90;;;;;;4993067;28;20034;-78
2024/03/01 08:21:46;;;;;;;19.40;11.57;;;6.90;99.90;;;;;;4992690;28;20030;-78
2024/03/01 08:24:22;;;;;;;18.77;11.73;;;6.90;99.90;;;;;;4992931;28;20466;-78
2024/03/01 08:26:48;;;;;;;19.50;11.13;;;7.10;99.90;;;;;;4985025;28;20438;-78
2024/03/01 08:29:14;;;;;;;21.80;11.93;;;7.10;99.90;;;;;;4990571;28;20065;-78
2024/03/01 08:31:39;;;;;;;18.33;12.38;;;7.20;99.90;;;;;;4992774;28;20034;-78
2024/03/01 08:34:05;;;;;;;18.13;11.88;;;7.30;99.90;;;;;;4992250;28;20042;-78
2024/03/01 08:36:31;;;;;;;16.48;11.05;;;7.30;99.90;;;;;;4992144;28;20049;-78
2024/03/01 08:39:06;;;;;;;16.60;10.68;;;7.40;99.90;;;;;;4992293;28;20031;-78
2024/03/01 08:41:32;;;;;;;19.02;11.65;;;7.50;99.90;;;;;;4993050;28;20076;-78
2024/03/01 08:43:58;;;;;;;15.27;10.48;;;7.40;99.90;;;;;;4990110;28;20433;-78
2024/03/01 08:46:30;;;;;;;16.70;10.50;;;7.50;99.90;;;;;;4992484;28;20030;-78
2024/03/01 08:48:57;;;;;;;16.00;10.43;;;7.50;99.90;;;;;;4991903;28;20470;-79
2024/03/01 08:51:22;;;;;;;13.45;8.77;;;7.50;99.90;;;;;;4992775;28;20376;-78
2024/03/01 08:53:57;;;;;;;15.95;9.40;;;7.50;99.90;;;;;;4992527;28;20045;-77
2024/03/01 08:56:37;;;;;;;15.27;8.07;;;7.60;99.90;;;;;;4985435;28;20034;-79
2024/03/01 08:59:31;;;;;;;14.52;7.53;;;7.70;99.90;;;;;;4990058;28;20065;-78
2024/03/01 09:01:57;;;;;;;12.80;8.18;;;7.70;99.90;;;;;;4991917;28;20030;-78
2024/03/01 09:04:28;;;;;;;13.63;7.38;;;7.70;99.90;;;;;;4991841;28;20034;-78
2024/03/01 09:07:36;;;;;;;11.70;7.63;;;7.80;99.90;;;;;;4991690;28;20042;-79
2024/03/01 09:10:05;;;;;;;11.57;7.03;;;7.80;99.90;;;;;;4969284;28;20050;-78
2024/03/01 09:12:30;;;;;;;12.43;6.90;;;7.70;99.90;;;;;;4992252;28;20103;-78
2024/03/01 09:15:01;;;;;;;10.23;6.47;;;7.80;99.90;;;;;;4990297;28;20022;-78
2024/03/01 09:17:27;;;;;;;13.10;6.50;;;7.80;99.90;;;;;;4990153;28;20501;-79
2024/03/01 09:19:53;;;;;;;9.52;6.35;;;7.80;99.90;;;;;;4992182;28;20419;-78
2024/03/01 09:22:19;;;;;;;9.27;6.30;;;7.90;99.90;;;;;;4991934;28;20023;-78
2024/03/01 09:24:45;;;;;;;12.10;6.28;;;8.00;99.90;;;;;;4991637;28;20030;-79
2024/03/01 09:27:32;;;;;;;13.30;6.65;;;8.10;99.90;;;;;;4991719;28;20034;-79
2024/03/01 09:30:02;;;;;;;15.13;6.25;;;8.10;99.90;;;;;;4991471;28;20378;-79
2024/03/01 09:32:31;;;;;;;13.77;5.78;;;8.10;99.90;;;;;;4989945;28;20479;-79
2024/03/01 09:34:57;;;;;;;13.77;6.10;;;8.10;99.90;;;;;;4990810;28;20479;-79
2024/03/01 09:37:23;;;;;;;13.35;6.47;;;8.10;99.90;;;;;;4991906;28;20023;-79
2024/03/01 09:39:48;;;;;;;11.45;5.50;;;8.10;99.90;;;;;;4991743;28;20019;-78
2024/03/01 09:42:36;;;;;;;9.73;4.38;;;8.20;99.90;;;;;;4991605;28;20052;-79
2024/03/01 09:45:34;;;;;;;14.57;5.03;;;8.30;99.90;;;;;;4991401;28;20058;-78
2024/03/01 09:48:13;;;;;;;10.82;3.88;;;8.30;99.90;;;;;;4989656;28;20041;-79
2024/03/01 09:50:57;;;;;;;13.40;4.20;;;8.30;99.90;;;;;;4990758;28;20386;-79
2024/03/01 09:53:26;;;;;;;13.57;4.38;;;8.40;99.90;;;;;;4991469;28;20041;-79
2024/03/01 09:56:27;;;;;;;9.95;3.78;;;8.50;99.90;;;;;;4990843;28;20037;-79
2024/03/01 09:59:02;;;;;;;7.00;3.72;;;8.50;99.90;;;;;;4991476;28;20426;-78
2024/03/01 10:01:34;;;;;;;13.20;4.40;;;8.50;99.90;;;;;;4989858;28;20030;-78
2024/03/01 10:04:18;;;;;;;14.83;4.47;;;8.60;99.90;;;;;;4991036;28;20034;-78
2024/03/01 10:07:02;;;;;;;11.02;4.32;;;8.70;99.90;;;;;;4991856;28;20030;-78
2024/03/01 10:09:53;;;;;;;7.15;2.92;;;8.70;99.90;;;;;;4993679;28;20027;-78
2024/03/01 10:12:46;;;;;;;7.00;2.70;;;8.80;99.90;;;;;;4995048;28;20088;-78
2024/03/01 10:15:25;;;;;;;6.97;2.55;;;8.60;99.90;;;;;;4994728;28;20022;-78
2024/03/01 10:18:35;;;;;;;7.68;2.47;;;8.60;99.90;;;;;;4993565;28;20081;-77
2024/03/01 10:21:21;;;;;;;8.05;2.72;;;8.70;99.90;;;;;;4989074;28;20313;-78
2024/03/01 10:24:09;;;;;;;6.82;2.55;;;8.80;99.90;;;;;;4987709;28;20030;-78
2024/03/01 10:26:41;;;;;;;7.07;2.20;;;8.70;99.90;;;;;;4993296;28;20034;-78
2024/03/01 10:29:49;;;;;;;7.45;2.78;;;8.70;99.90;;;;;;4980843;28;20027;-77
2024/03/01 10:32:52;;;;;;;6.20;2.30;;;8.70;99.90;;;;;;4947196;28;20053;-77
2024/03/01 10:35:19;;;;;;;;;;;8.80;99.90;;;;;;4986019;28;20466;-77
2024/03/01 10:38:00;;;;;;;6.18;2.20;;;8.70;99.90;;;;;;4987224;28;19918;-76
2024/03/01 10:40:31;;;;;;;7.00;1.30;;;8.60;99.90;;;;;;4983813;28;20061;-75
2024/03/01 10:43:14;;;;;;;7.55;2.28;;;8.60;99.90;;;;;;4985921;28;20446;-76
2024/03/01 10:46:14;;;;;;;7.05;2.33;;;8.70;99.90;;;;;;4990844;28;20388;-76
2024/03/01 10:49:05;;;;;;;6.40;1.75;;;8.90;99.90;;;;;;4987340;28;20039;-76
2024/03/01 10:51:34;;;;;;;4.63;2.10;;;9.10;99.90;;;;;;4987365;28;20030;-76
2024/03/01 10:54:05;;;;;;;4.28;1.90;;;9.20;99.90;;;;;;4990693;28;20041;-76
2024/03/01 10:56:31;;;;;;;8.57;1.42;;;9.10;99.90;;;;;;4990339;28;20022;-77
2024/03/01 10:59:06;;;;;;;4.25;1.40;;;9.00;99.90;;;;;;4984774;28;20038;-77
2024/03/01 11:01:46;;;;;;;4.53;1.70;;;9.00;99.90;;;;;;4991091;28;20483;-76
2024/03/01 11:04:34;;;;;;;4.03;1.30;;;9.10;99.90;;;;;;4987882;28;20125;-76
2024/03/01 11:07:14;;;;;;;7.88;1.20;;;9.20;99.90;;;;;;4986119;28;20034;-77
2024/03/01 11:09:45;;;;;;;3.90;1.00;;;9.30;99.90;;;;;;4992881;28;20030;-76
2024/03/01 11:12:36;;;;;;;6.88;1.50;;;9.30;99.90;;;;;;4992683;28;20580;-76
2024/03/01 11:15:13;;;;;;;4.05;1.23;;;9.30;99.90;;;;;;4992913;28;20034;-76
2024/03/01 11:17:41;;;;;;;7.18;1.08;;;9.40;99.90;;;;;;4993048;28;20390;-76
2024/03/01 11:20:25;;;;;;;4.80;1.23;;;9.30;99.90;;;;;;4992228;28;20037;-76
2024/03/01 11:23:01;;;;;;;3.88;0.85;;;9.30;99.90;;;;;;4989458;28;20038;-76
2024/03/01 11:25:39;;;;;;;4.82;1.00;;;9.40;99.90;;;;;;4989473;28;20113;-76
2024/03/01 11:28:09;;;;;;;4.25;0.85;;;9.50;99.90;;;;;;4994169;28;20030;-76
2024/03/01 11:30:42;;;;;;;3.38;0.98;;;9.50;99.90;;;;;;4991008;28;20030;-76
2024/03/01 11:33:10;;;;;;;5.07;0.77;;;9.50;99.90;;;;;;5000730;28;20049;-76
2024/03/01 11:35:43;;;;;;;3.45;1.10;;;9.60;99.90;;;;;;4987271;28;20134;-76
2024/03/01 11:38:39;;;;;;;4.32;0.73;;;9.60;99.90;;;;;;4987866;28;20035;-76
2024/03/01 11:41:33;;;;;;;7.45;1.38;;;9.60;99.90;;;;;;4987941;28;20071;-76
2024/03/01 11:44:29;;;;;;;3.83;0.70;;;9.60;99.90;;;;;;4983113;28;20089;-76
2024/03/01 11:47:03;;;;;;;3.35;0.60;;;9.60;99.90;;;;;;4981572;28;21724;-76
2024/03/01 11:49:54;;;;;;;4.28;1.33;;;9.70;99.90;;;;;;4982581;28;20081;-76
2024/03/01 11:52:59;;;;;;;3.40;0.60;;;9.80;99.90;;;;;;4986077;28;20033;-77
2024/03/01 11:55:53;;;;;;;2.92;0.38;;;9.70;99.90;;;;;;4984908;28;20050;-77
2024/03/01 11:58:40;;;;;;;2.08;0.40;;;9.70;99.90;;;;;;4985597;28;20062;-77
2024/03/01 12:01:12;;;;;;;3.50;0.40;;;9.80;99.90;;;;;;4981906;28;20406;-76
2024/03/01 12:04:00;;;;;;;2.60;0.60;;;9.80;99.90;;;;;;4988023;28;20026;-76
2024/03/01 12:06:59;;;;;;;3.35;0.50;;;9.90;99.90;;;;;;4985572;28;20572;-77
2024/03/01 12:09:34;;;;;;;2.30;0.82;;;10.00;99.90;;;;;;4982616;28;20041;-76
2024/03/01 12:12:48;;;;;;;1.90;0.60;;;10.10;99.90;;;;;;4984891;28;20054;-77
2024/03/01 12:15:25;;;;;;;1.33;0.50;;;10.20;99.90;;;;;;4983749;28;20180;-77
2024/03/01 12:18:25;;;;;;;1.38;0.40;;;10.30;99.90;;;;;;4985885;28;20037;-77
2024/03/01 12:21:11;;;;;;;2.13;0.50;;;10.30;99.90;;;;;;4990915;28;20442;-75
2024/03/01 12:23:45;;;;;;;3.13;0.60;;;10.30;99.90;;;;;;4976146;28;20038;-76
2024/03/01 12:26:16;;;;;;;2.55;0.70;;;10.30;99.90;;;;;;4981378;28;20471;-77
2024/03/01 12:29:24;;;;;;;4.63;0.47;;;10.40;99.90;;;;;;4978520;28;20482;-77
2024/03/01 12:32:22;;;;;;;1.65;0.40;;;10.50;99.90;;;;;;4989521;28;20030;-77
2024/03/01 12:35:25;;;;;;;3.25;0.38;;;10.50;99.90;;;;;;4987110;28;20088;-76
2024/03/01 12:38:15;;;;;;;4.68;0.30;;;10.50;99.90;;;;;;4986941;28;20039;-77
2024/03/01 12:41:07;;;;;;;3.15;0.40;;;10.60;99.90;;;;;;4986873;28;20022;-77
2024/03/01 12:44:10;;;;;;;2.83;0.30;;;10.70;99.90;;;;;;4987695;28;20022;-77
2024/03/01 12:47:08;;;;;;;2.58;0.30;;;10.80;99.90;;;;;;4973299;28;20041;-77
2024/03/01 12:49:53;;;;;;;2.00;0.20;;;10.80;99.90;;;;;;4988440;28;20057;-77
2024/03/01 12:52:37;;;;;;;1.77;0.28;;;10.80;99.90;;;;;;4982130;28;20027;-77
2024/03/01 12:55:12;;;;;;;2.45;0.40;;;10.70;99.90;;;;;;4977549;28;20041;-77
2024/03/01 12:58:04;;;;;;;1.02;0.20;;;10.70;99.90;;;;;;4985179;28;20038;-77
2024/03/01 13:00:47;;;;;;;1.73;0.30;;;10.60;99.90;;;;;;4984574;28;20029;-75
2024/03/01 13:03:33;;;;;;;3.05;0.30;;;10.60;99.90;;;;;;4982993;28;20018;-77
2024/03/01 13:06:00;;;;;;;2.30;0.30;;;10.60;99.90;;;;;;4988472;28;20031;-77
2024/03/01 13:08:38;;;;;;;3.40;0.57;;;10.60;99.90;;;;;;4990191;28;20018;-75
2024/03/01 13:11:10;;;;;;;1.98;0.30;;;10.70;99.90;;;;;;4978158;28;20030;-76
2024/03/01 13:13:39;;;;;;;2.53;0.40;;;10.80;99.90;;;;;;4979677;28;20096;-76